Time;durP1;ratioP1;P1;durP2;ratioP2;P2;SDS_P1;SDS_P2;PMS_P1;PMS_P2;Temp;Humidity;BMP_temperature;BMP_pressure;BME280_temperature;BME280_humidity;BME280_pressure;Samples;Min_cycle;Max_cycle;Signal;HPM_P1;HPM_P2
2023/05/14 00:01:19;;;;;;;10.80;8.02;;;23.00;85.40;;;;;;6299948;27;88402;-70
2023/05/14 00:04:21;;;;;;;10.63;7.95;;;23.00;85.30;;;;;;6280717;27;89102;-70
2023/05/14 00:07:29;;;;;;;9.70;7.80;;;23.00;85.30;;;;;;6281890;27;89059;-70
2023/05/14 00:10:31;;;;;;;10.95;7.85;;;23.00;85.30;;;;;;6275622;27;91270;-70
2023/05/14 00:13:34;;;;;;;10.52;8.02;;;23.00;85.40;;;;;;6277753;27;89140;-69
2023/05/14 00:16:36;;;;;;;11.20;7.97;;;23.00;85.30;;;;;;6283356;27;89071;-70
2023/05/14 00:19:40;;;;;;;9.45;7.80;;;23.00;86.20;;;;;;6272876;27;89093;-70
2023/05/14 00:22:43;;;;;;;8.85;7.57;;;23.00;85.20;;;;;;6271575;27;90260;-70
2023/05/14 00:25:45;;;;;;;9.18;7.32;;;23.00;85.20;;;;;;6277525;27;89106;-70
2023/05/14 00:28:48;;;;;;;9.80;7.68;;;23.00;85.20;;;;;;6279478;27;88961;-70
2023/05/14 00:31:50;;;;;;;8.68;7.20;;;23.00;85.20;;;;;;6274953;27;88353;-69
2023/05/14 00:34:52;;;;;;;9.52;7.38;;;23.00;85.20;;;;;;6285885;27;89146;-70
2023/05/14 00:37:54;;;;;;;8.82;7.38;;;23.00;85.20;;;;;;6277629;27;89161;-69
2023/05/14 00:40:56;;;;;;;9.52;7.50;;;23.00;85.10;;;;;;6271223;27;90120;-70
2023/05/14 00:43:59;;;;;;;8.98;7.35;;;22.90;85.00;;;;;;6272619;27;89142;-70
2023/05/14 00:47:02;;;;;;;8.32;6.88;;;22.90;85.00;;;;;;6284621;27;89117;-70
2023/05/14 00:50:05;;;;;;;12.60;7.40;;;23.00;85.20;;;;;;6281971;27;89073;-70
2023/05/14 00:53:09;;;;;;;9.13;6.80;;;22.90;85.00;;;;;;6278814;27;89006;-70
2023/05/14 00:56:11;;;;;;;9.38;6.43;;;22.90;85.00;;;;;;6271759;27;89472;-70
2023/05/14 00:59:15;;;;;;;7.22;6.40;;;22.90;85.00;;;;;;6279803;27;89116;-70
2023/05/14 01:02:16;;;;;;;9.15;6.80;;;22.90;85.00;;;;;;6278903;27;88770;-70
2023/05/14 01:05:19;;;;;;;7.70;5.88;;;22.90;85.00;;;;;;6269138;27;89396;-70
2023/05/14 01:08:30;;;;;;;8.05;6.20;;;22.90;85.00;;;;;;6273409;27;89097;-70
2023/05/14 01:11:41;;;;;;;8.73;6.40;;;22.90;85.00;;;;;;6273207;27;89991;-70
2023/05/14 01:14:54;;;;;;;7.93;6.68;;;22.90;84.90;;;;;;6293851;27;89176;-69
2023/05/14 01:18:01;;;;;;;7.90;6.22;;;22.90;85.00;;;;;;6270637;27;88260;-68
2023/05/14 01:21:03;;;;;;;7.05;6.03;;;22.90;85.00;;;;;;6277538;27;89115;-69
2023/05/14 01:24:08;;;;;;;7.70;6.00;;;22.90;85.00;;;;;;6263445;27;90065;-69
2023/05/14 01:27:16;;;;;;;8.18;6.18;;;22.90;84.90;;;;;;6288230;27;90377;-70
2023/05/14 01:30:24;;;;;;;6.53;5.80;;;22.80;84.80;;;;;;6276659;27;89357;-70
2023/05/14 01:33:29;;;;;;;7.70;6.22;;;22.90;84.90;;;;;;6285007;27;88600;-70
2023/05/14 01:36:32;;;;;;;6.88;6.18;;;22.80;84.70;;;;;;6276203;27;88972;-68
2023/05/14 01:39:37;;;;;;;6.45;5.75;;;22.80;84.70;;;;;;6283613;27;87970;-68
2023/05/14 01:42:40;;;;;;;7.07;5.88;;;22.80;84.70;;;;;;6285002;27;90048;-69
2023/05/14 01:45:43;;;;;;;6.57;5.45;;;22.80;84.70;;;;;;6264902;27;89150;-69
2023/05/14 01:48:45;;;;;;;6.53;5.50;;;22.80;84.70;;;;;;6279771;27;89052;-69
2023/05/14 01:51:47;;;;;;;7.45;6.20;;;22.80;84.70;;;;;;6286842;27;89377;-68
2023/05/14 01:54:51;;;;;;;6.55;5.70;;;22.80;84.70;;;;;;6276608;27;89085;-68
2023/05/14 01:57:53;;;;;;;6.55;5.80;;;22.80;84.70;;;;;;6278134;27;89515;-69
2023/05/14 02:00:55;;;;;;;7.85;5.47;;;22.80;84.60;;;;;;6283010;27;89087;-68
2023/05/14 02:03:57;;;;;;;6.10;5.22;;;22.80;84.60;;;;;;6260573;27;88306;-68
2023/05/14 02:06:59;;;;;;;7.68;5.78;;;22.80;84.60;;;;;;6262149;27;89304;-69
2023/05/14 02:10:02;;;;;;;5.85;5.25;;;22.80;84.50;;;;;;6270062;27;89017;-69
2023/05/14 02:13:04;;;;;;;5.30;4.82;;;22.80;84.60;;;;;;6277295;27;90091;-69
2023/05/14 02:16:07;;;;;;;5.70;5.03;;;22.80;84.60;;;;;;6270210;27;88997;-69
2023/05/14 02:19:08;;;;;;;6.10;5.50;;;22.80;84.60;;;;;;6275094;27;89328;-69
2023/05/14 02:22:10;;;;;;;5.63;4.90;;;22.70;84.50;;;;;;6267575;27;89087;-69
2023/05/14 02:25:14;;;;;;;6.60;5.57;;;22.70;84.50;;;;;;6266932;27;89088;-67
2023/05/14 02:28:16;;;;;;;6.47;4.90;;;22.70;84.50;;;;;;6268773;27;89182;-69
2023/05/14 02:31:18;;;;;;;6.70;5.22;;;22.70;84.50;;;;;;6263291;27;88269;-68
2023/05/14 02:34:20;;;;;;;5.65;5.10;;;22.70;84.60;;;;;;6280779;27;88658;-69
2023/05/14 02:37:22;;;;;;;7.40;5.57;;;22.70;84.50;;;;;;6279686;27;88028;-67
2023/05/14 02:40:25;;;;;;;8.20;5.55;;;22.70;84.50;;;;;;6272524;27;89075;-69
2023/05/14 02:43:27;;;;;;;5.85;5.22;;;22.70;84.50;;;;;;6271438;27;90217;-69
2023/05/14 02:46:31;;;;;;;9.13;5.40;;;22.70;84.50;;;;;;6274378;27;89204;-69
2023/05/14 02:49:33;;;;;;;6.63;5.40;;;22.70;84.50;;;;;;6279541;27;92193;-70
2023/05/14 02:52:35;;;;;;;6.10;5.28;;;22.70;84.60;;;;;;6277288;27;89089;-69
2023/05/14 02:55:38;;;;;;;6.28;5.40;;;22.70;84.50;;;;;;6279458;27;89032;-69
2023/05/14 02:58:40;;;;;;;7.20;5.80;;;22.70;84.50;;;;;;6276549;27;89383;-68
2023/05/14 03:01:42;;;;;;;6.32;5.43;;;22.70;84.60;;;;;;6278404;27;89425;-68
2023/05/14 03:04:44;;;;;;;6.15;5.55;;;22.70;84.50;;;;;;6267586;27;87080;-69
2023/05/14 03:07:46;;;;;;;5.82;4.95;;;22.70;84.50;;;;;;6280645;27;89623;-69
2023/05/14 03:10:49;;;;;;;5.72;5.13;;;22.70;84.50;;;;;;6277252;27;89338;-69
2023/05/14 03:13:51;;;;;;;7.03;6.00;;;22.70;84.40;;;;;;6272431;27;90391;-68
2023/05/14 03:16:53;;;;;;;7.35;5.40;;;22.70;84.50;;;;;;6286644;27;88985;-68
2023/05/14 03:19:55;;;;;;;6.28;5.68;;;22.70;84.40;;;;;;6274972;27;90454;-69
2023/05/14 03:22:57;;;;;;;6.28;5.65;;;22.70;84.50;;;;;;6278552;27;89395;-68
2023/05/14 03:26:01;;;;;;;7.47;5.50;;;22.70;84.50;;;;;;6291298;27;89014;-68
2023/05/14 03:29:03;;;;;;;5.95;5.35;;;22.70;84.50;;;;;;6268180;27;89151;-68
2023/05/14 03:32:06;;;;;;;7.00;5.57;;;22.60;84.40;;;;;;6278291;27;89211;-68
2023/05/14 03:35:08;;;;;;;6.68;5.78;;;22.60;85.40;;;;;;6284802;27;88355;-68
2023/05/14 03:38:10;;;;;;;8.18;5.88;;;22.60;84.50;;;;;;6273654;27;89098;-68
2023/05/14 03:41:14;;;;;;;6.65;5.90;;;22.60;84.40;;;;;;6283797;27;89160;-68
2023/05/14 03:44:16;;;;;;;6.97;5.90;;;22.60;84.30;;;;;;6273097;27;90209;-68
2023/05/14 03:47:18;;;;;;;6.20;5.60;;;22.70;84.30;;;;;;6275937;27;89229;-68
2023/05/14 03:50:19;;;;;;;6.47;5.85;;;22.70;84.30;;;;;;6295215;27;89103;-68
2023/05/14 03:53:21;;;;;;;6.65;5.95;;;22.70;84.30;;;;;;6280504;27;89047;-68
2023/05/14 03:56:25;;;;;;;6.00;5.45;;;22.70;84.20;;;;;;6282486;27;88068;-68
2023/05/14 03:59:27;;;;;;;6.00;5.43;;;22.70;84.20;;;;;;6278253;27;88989;-68
2023/05/14 04:02:29;;;;;;;6.53;5.63;;;22.70;84.20;;;;;;6282479;27;87962;-68
2023/05/14 04:05:31;;;;;;;6.38;5.72;;;22.70;84.10;;;;;;6282223;27;87416;-68
2023/05/14 04:08:33;;;;;;;6.25;5.55;;;22.70;84.00;;;;;;6281491;27;89069;-68
2023/05/14 04:11:36;;;;;;;6.95;6.25;;;22.70;84.00;;;;;;6268399;27;89124;-68
2023/05/14 04:14:38;;;;;;;7.63;5.60;;;22.70;84.90;;;;;;6277135;27;90092;-67
2023/05/14 04:17:40;;;;;;;6.65;5.85;;;22.70;83.80;;;;;;6281089;27;89108;-68
2023/05/14 04:20:42;;;;;;;6.40;5.80;;;22.70;83.80;;;;;;6276453;27;90024;-68
2023/05/14 04:23:44;;;;;;;8.13;6.10;;;22.70;83.80;;;;;;6285632;27;89482;-68
2023/05/14 04:26:47;;;;;;;6.70;6.07;;;22.80;83.80;;;;;;6275938;27;89119;-69
2023/05/14 04:29:50;;;;;;;6.50;5.90;;;22.80;83.80;;;;;;6271200;27;89005;-68
2023/05/14 04:32:52;;;;;;;6.47;5.80;;;22.70;83.70;;;;;;6291709;27;89092;-68
2023/05/14 04:35:54;;;;;;;6.38;5.75;;;22.80;83.70;;;;;;6293379;27;88407;-68
2023/05/14 04:38:56;;;;;;;6.45;5.82;;;22.80;83.70;;;;;;6274233;27;89047;-68
2023/05/14 04:41:59;;;;;;;6.38;5.78;;;22.80;83.60;;;;;;6270176;27;88955;-68
2023/05/14 04:45:01;;;;;;;6.70;6.00;;;22.80;83.50;;;;;;6279463;27;90096;-69
2023/05/14 04:48:03;;;;;;;6.47;5.80;;;22.80;83.50;;;;;;6274051;27;89092;-69
2023/05/14 04:51:06;;;;;;;6.63;5.78;;;22.80;83.50;;;;;;6264859;27;89056;-68
2023/05/14 04:54:08;;;;;;;6.32;5.78;;;22.80;83.40;;;;;;6263969;27;89349;-68
2023/05/14 04:57:11;;;;;;;6.97;6.28;;;22.80;83.30;;;;;;6274330;27;89050;-68
2023/05/14 05:00:14;;;;;;;6.53;5.90;;;22.80;83.30;;;;;;6276404;27;89360;-68
2023/05/14 05:03:16;;;;;;;6.53;5.88;;;22.80;83.30;;;;;;6266722;27;88826;-68
2023/05/14 05:06:18;;;;;;;6.72;6.00;;;22.80;83.30;;;;;;6266996;27;87220;-68
2023/05/14 05:09:20;;;;;;;6.47;5.88;;;22.80;83.30;;;;;;6269803;27;89111;-67
2023/05/14 05:12:24;;;;;;;6.05;5.55;;;22.90;83.30;;;;;;6270065;27;88994;-68
2023/05/14 05:15:26;;;;;;;6.60;5.97;;;22.80;83.20;;;;;;6283071;27;90400;-68
2023/05/14 05:18:29;;;;;;;6.82;5.88;;;22.90;83.20;;;;;;6279460;27;89102;-68
2023/05/14 05:21:31;;;;;;;6.38;5.78;;;22.90;83.20;;;;;;6281338;27;89153;-69
2023/05/14 05:24:33;;;;;;;7.10;5.82;;;22.90;83.20;;;;;;6263313;27;89433;-68
2023/05/14 05:27:36;;;;;;;7.15;5.72;;;22.90;83.00;;;;;;6271915;27;87995;-68
2023/05/14 05:30:38;;;;;;;7.93;6.05;;;22.90;83.00;;;;;;6277503;27;89111;-68
2023/05/14 05:33:40;;;;;;;5.75;5.25;;;22.80;83.00;;;;;;6292429;27;89072;-68
2023/05/14 05:36:42;;;;;;;6.18;5.65;;;22.90;83.00;;;;;;6276118;27;89351;-68
2023/05/14 05:39:46;;;;;;;5.97;5.38;;;22.90;83.00;;;;;;6273624;27;89402;-68
2023/05/14 05:42:49;;;;;;;6.90;5.93;;;22.90;83.00;;;;;;6277436;27;89047;-68
2023/05/14 05:45:51;;;;;;;5.75;5.22;;;22.90;82.90;;;;;;6267396;27;90414;-68
2023/05/14 05:48:53;;;;;;;5.97;5.38;;;22.90;82.80;;;;;;6267448;27;88909;-68
2023/05/14 05:51:55;;;;;;;5.82;5.32;;;22.90;82.80;;;;;;6295823;27;88382;-68
2023/05/14 05:54:57;;;;;;;6.32;5.70;;;23.00;82.80;;;;;;6272873;27;89058;-68
2023/05/14 05:58:01;;;;;;;5.82;5.32;;;23.00;82.80;;;;;;6280589;27;89205;-68
2023/05/14 06:01:03;;;;;;;5.70;5.20;;;22.90;82.70;;;;;;6274427;27;89378;-68
2023/05/14 06:04:05;;;;;;;6.43;5.53;;;23.00;82.70;;;;;;6269091;27;87993;-68
2023/05/14 06:07:07;;;;;;;5.82;5.32;;;23.00;82.70;;;;;;6277998;27;88333;-68
2023/05/14 06:10:09;;;;;;;6.07;5.47;;;23.00;82.70;;;;;;6280194;27;89134;-68
2023/05/14 06:13:12;;;;;;;6.00;5.30;;;23.00;82.70;;;;;;6277285;27;89183;-67
2023/05/14 06:16:14;;;;;;;6.10;5.50;;;23.00;82.70;;;;;;6280485;27;90111;-67
2023/05/14 06:19:16;;;;;;;5.78;5.22;;;23.00;82.70;;;;;;6266450;27;89097;-68
2023/05/14 06:22:18;;;;;;;6.00;5.50;;;23.00;82.70;;;;;;6274896;27;89486;-69
2023/05/14 06:25:20;;;;;;;5.45;4.90;;;23.00;82.70;;;;;;6265082;27;89451;-69
2023/05/14 06:28:24;;;;;;;5.35;4.85;;;23.00;82.70;;;;;;6271403;27;89045;-69
2023/05/14 06:31:26;;;;;;;5.93;5.32;;;23.00;82.70;;;;;;6272080;27;89106;-69
2023/05/14 06:34:28;;;;;;;6.88;5.85;;;23.00;82.70;;;;;;6286011;27;87993;-69
2023/05/14 06:37:30;;;;;;;5.45;4.95;;;23.00;82.70;;;;;;6279443;27;88402;-68
2023/05/14 06:40:32;;;;;;;5.40;4.90;;;23.00;82.80;;;;;;6284132;27;88997;-68
2023/05/14 06:43:36;;;;;;;5.65;5.15;;;23.00;82.80;;;;;;6278164;27;89225;-68
2023/05/14 06:46:38;;;;;;;5.60;5.10;;;23.10;82.80;;;;;;6280626;27;90414;-69
2023/05/14 06:49:40;;;;;;;5.80;5.30;;;23.00;82.80;;;;;;6264699;27;89167;-69
2023/05/14 06:52:42;;;;;;;5.45;4.95;;;23.00;82.90;;;;;;6276069;27;89207;-68
2023/05/14 06:55:44;;;;;;;5.63;5.10;;;23.00;83.00;;;;;;6268527;27;88689;-68
2023/05/14 06:58:48;;;;;;;6.00;5.32;;;23.10;83.00;;;;;;6288606;27;89146;-69
2023/05/14 07:01:50;;;;;;;5.70;5.20;;;23.10;83.00;;;;;;6268235;27;89252;-68
2023/05/14 07:04:52;;;;;;;5.85;5.05;;;23.10;83.20;;;;;;6271960;27;89526;-68
2023/05/14 07:07:54;;;;;;;4.95;4.07;;;23.10;83.40;;;;;;6279809;27;88386;-67
2023/05/14 07:10:56;;;;;;;5.13;4.70;;;23.10;83.50;;;;;;6277582;27;89410;-68
2023/05/14 07:13:59;;;;;;;5.07;4.68;;;23.10;83.60;;;;;;6282134;27;89120;-68
2023/05/14 07:17:01;;;;;;;5.50;4.95;;;23.10;83.50;;;;;;6271095;27;90555;-68
2023/05/14 07:20:04;;;;;;;5.03;4.55;;;23.10;84.30;;;;;;6268000;27;89072;-68
2023/05/14 07:23:06;;;;;;;5.32;4.82;;;23.10;83.40;;;;;;6278391;27;89072;-68
2023/05/14 07:26:08;;;;;;;4.80;4.40;;;23.10;83.40;;;;;;6280554;27;89103;-68
2023/05/14 07:29:11;;;;;;;5.20;4.70;;;23.10;83.40;;;;;;6281923;27;89055;-67
2023/05/14 07:32:13;;;;;;;4.88;4.47;;;23.10;83.40;;;;;;6285162;27;89052;-68
2023/05/14 07:35:16;;;;;;;5.32;4.40;;;23.10;83.30;;;;;;6279113;27;89125;-68
2023/05/14 07:38:20;;;;;;;5.75;4.47;;;23.10;83.40;;;;;;6284019;27;88438;-67
2023/05/14 07:41:22;;;;;;;5.00;4.57;;;23.10;83.40;;;;;;6279293;27;90153;-67
2023/05/14 07:44:26;;;;;;;5.43;4.88;;;23.10;83.30;;;;;;6273432;27;89083;-69
2023/05/14 07:47:28;;;;;;;5.07;4.57;;;23.10;83.30;;;;;;6274144;27;90103;-68
2023/05/14 07:50:30;;;;;;;4.30;3.90;;;23.10;83.30;;;;;;6271890;27;89125;-69
2023/05/14 07:53:32;;;;;;;4.47;4.13;;;23.10;83.40;;;;;;6274921;27;88999;-69
2023/05/14 07:56:34;;;;;;;4.60;4.20;;;23.10;83.40;;;;;;6281103;27;89109;-69
2023/05/14 07:59:37;;;;;;;5.30;4.80;;;23.10;83.50;;;;;;6271732;27;88807;-68
2023/05/14 08:02:39;;;;;;;4.47;4.07;;;23.10;83.50;;;;;;6273914;27;89564;-68
2023/05/14 08:05:41;;;;;;;4.32;3.90;;;23.10;83.50;;;;;;6282635;27;87984;-68
2023/05/14 08:08:43;;;;;;;4.95;4.45;;;23.10;83.60;;;;;;6282749;27;88327;-68
2023/05/14 08:11:45;;;;;;;5.15;4.60;;;23.10;83.50;;;;;;6268558;27;89384;-69
2023/05/14 08:14:48;;;;;;;4.63;4.10;;;23.10;83.50;;;;;;6279368;27;89112;-68
2023/05/14 08:17:50;;;;;;;4.38;3.97;;;23.10;83.50;;;;;;6280656;27;90109;-69
2023/05/14 08:20:52;;;;;;;4.72;4.22;;;23.10;83.60;;;;;;6287563;27;89030;-68
2023/05/14 08:23:54;;;;;;;4.50;4.00;;;23.10;83.60;;;;;;6282742;27;89119;-68
2023/05/14 08:26:56;;;;;;;4.80;4.30;;;23.10;83.60;;;;;;6273406;27;89127;-68
2023/05/14 08:30:00;;;;;;;4.40;4.00;;;23.10;83.70;;;;;;6277224;27;89179;-67
2023/05/14 08:33:02;;;;;;;4.78;4.38;;;23.10;83.60;;;;;;6278681;27;88416;-69
2023/05/14 08:36:04;;;;;;;4.55;4.18;;;23.10;83.70;;;;;;6289172;27;88154;-68
2023/05/14 08:39:07;;;;;;;4.13;3.75;;;23.10;83.70;;;;;;6272422;27;88640;-69
2023/05/14 08:42:12;;;;;;;4.40;4.00;;;23.10;83.70;;;;;;6277612;27;89053;-68
2023/05/14 08:45:19;;;;;;;4.43;4.03;;;23.10;83.70;;;;;;6260665;27;89022;-67
2023/05/14 08:48:22;;;;;;;4.15;3.75;;;23.10;83.70;;;;;;6276898;27;90036;-67
2023/05/14 08:51:26;;;;;;;3.83;3.53;;;23.10;83.80;;;;;;6281151;27;89136;-67
2023/05/14 08:54:28;;;;;;;4.18;3.78;;;23.10;83.80;;;;;;6279007;27;89791;-68
2023/05/14 08:57:32;;;;;;;4.28;3.88;;;23.10;84.00;;;;;;6282006;27;88404;-68
2023/05/14 09:00:35;;;;;;;4.43;4.03;;;23.10;84.20;;;;;;6261129;27;88444;-67
2023/05/14 09:03:37;;;;;;;3.90;3.60;;;23.10;84.20;;;;;;6287419;27;89385;-68
2023/05/14 09:06:42;;;;;;;3.97;3.65;;;23.10;84.10;;;;;;6273516;27;89078;-67
2023/05/14 09:09:44;;;;;;;4.82;3.80;;;23.10;84.20;;;;;;6270129;27;88471;-68
2023/05/14 09:12:46;;;;;;;5.93;4.20;;;23.10;84.20;;;;;;6280605;27;89146;-67
2023/05/14 09:15:50;;;;;;;4.97;4.40;;;23.20;84.60;;;;;;6266451;27;89040;-67
2023/05/14 09:18:52;;;;;;;6.38;3.92;;;23.20;84.40;;;;;;6269611;27;89981;-68
2023/05/14 09:21:57;;;;;;;4.25;3.67;;;23.20;86.90;;;;;;6276512;27;89088;-68
2023/05/14 09:25:04;;;;;;;3.92;3.63;;;23.20;85.20;;;;;;6270641;27;89246;-67
2023/05/14 09:28:08;;;;;;;4.10;3.70;;;23.20;84.90;;;;;;6267720;27;89098;-67
2023/05/14 09:31:11;;;;;;;3.92;3.63;;;23.20;84.70;;;;;;6284078;27;89111;-67
2023/05/14 09:34:24;;;;;;;4.15;3.75;;;23.30;84.80;;;;;;6282006;27;89499;-67
2023/05/14 09:37:28;;;;;;;4.18;3.78;;;23.30;84.80;;;;;;6276112;27;89073;-68
2023/05/14 09:40:30;;;;;;;4.57;4.10;;;23.20;84.70;;;;;;6272957;27;90256;-67
2023/05/14 09:43:32;;;;;;;4.10;3.72;;;23.20;84.70;;;;;;6266933;27;91957;-68
2023/05/14 09:46:36;;;;;;;4.38;3.90;;;23.30;85.60;;;;;;6263057;27;89203;-67
2023/05/14 09:49:38;;;;;;;4.10;3.70;;;23.20;84.70;;;;;;6273348;27;90360;-68
2023/05/14 09:52:40;;;;;;;412.95;367.77;;;23.20;84.80;;;;;;6266476;27;89178;-67
2023/05/14 09:55:42;;;;;;;976.65;765.88;;;23.30;85.60;;;;;;6292307;27;89127;-68
2023/05/14 09:58:44;;;;;;;635.30;531.30;;;23.30;90.40;;;;;;6285168;27;89421;-68
2023/05/14 10:01:49;;;;;;;290.88;221.77;;;23.30;88.10;;;;;;6284906;27;88958;-68
2023/05/14 10:04:53;;;;;;;180.48;134.98;;;23.50;85.40;;;;;;6261939;27;88859;-68
2023/05/14 10:07:57;;;;;;;112.88;85.47;;;23.50;84.70;;;;;;6272503;27;89949;-67
2023/05/14 10:11:01;;;;;;;87.15;66.10;;;23.60;82.80;;;;;;6281906;27;88376;-67
2023/05/14 10:14:08;;;;;;;69.90;53.70;;;23.50;82.30;;;;;;6275148;27;89123;-67
2023/05/14 10:17:17;;;;;;;79.72;60.85;;;23.50;81.90;;;;;;6263199;27;89088;-67
2023/05/14 10:20:19;;;;;;;81.65;62.10;;;23.50;82.00;;;;;;6257921;27;90144;-66
2023/05/14 10:23:22;;;;;;;77.97;58.85;;;23.50;82.30;;;;;;6266172;27;89028;-67
2023/05/14 10:26:24;;;;;;;76.50;56.95;;;23.40;82.50;;;;;;6259628;27;89243;-67
2023/05/14 10:29:33;;;;;;;71.80;54.53;;;23.40;82.70;;;;;;6289401;27;88339;-66
2023/05/14 10:32:37;;;;;;;70.03;52.72;;;23.40;82.70;;;;;;6267094;27;89131;-67
2023/05/14 10:35:55;;;;;;;66.18;49.92;;;23.40;82.80;;;;;;6274531;27;89025;-67
2023/05/14 10:38:57;;;;;;;62.78;47.50;;;23.40;82.80;;;;;;6277946;27;89773;-67
2023/05/14 10:41:59;;;;;;;60.70;45.95;;;23.40;82.80;;;;;;6284093;27;88486;-67
2023/05/14 10:45:06;;;;;;;55.00;43.47;;;23.40;82.90;;;;;;6269977;27;89303;-68
2023/05/14 10:48:09;;;;;;;55.75;42.20;;;23.40;83.00;;;;;;6281264;27;89194;-67
2023/05/14 10:51:11;;;;;;;53.55;40.63;;;23.40;83.00;;;;;;6277433;27;90020;-67
2023/05/14 10:54:13;;;;;;;51.40;39.40;;;23.40;83.00;;;;;;6269384;27;88824;-66
2023/05/14 10:57:17;;;;;;;50.47;37.95;;;23.40;83.10;;;;;;6269296;27;89348;-67
2023/05/14 11:00:19;;;;;;;46.20;36.17;;;23.40;83.10;;;;;;6269190;27;89131;-67
2023/05/14 11:03:22;;;;;;;45.03;34.63;;;23.40;83.10;;;;;;6270976;27;88259;-66
2023/05/14 11:06:26;;;;;;;41.15;32.00;;;23.40;83.10;;;;;;6276103;27;89085;-67
2023/05/14 11:09:28;;;;;;;34.97;27.30;;;23.30;83.00;;;;;;6266473;27;88277;-68
2023/05/14 11:12:30;;;;;;;35.63;26.38;;;23.40;82.70;;;;;;6279903;27;88665;-67
2023/05/14 11:15:32;;;;;;;34.25;26.40;;;23.40;82.30;;;;;;6268070;27;89168;-67
2023/05/14 11:18:37;;;;;;;31.85;24.65;;;23.30;82.50;;;;;;6278591;27;88117;-67
2023/05/14 11:21:39;;;;;;;28.67;22.67;;;23.40;82.70;;;;;;6286754;27;90196;-67
2023/05/14 11:24:41;;;;;;;26.83;21.95;;;23.40;82.70;;;;;;6282511;27;89669;-66
2023/05/14 11:27:44;;;;;;;24.92;20.60;;;23.30;82.90;;;;;;6260946;27;89395;-67
2023/05/14 11:30:46;;;;;;;26.17;20.70;;;23.40;83.10;;;;;;6277412;27;87905;-66
2023/05/14 11:33:49;;;;;;;25.25;18.10;;;23.40;83.20;;;;;;6287090;27;89005;-67
2023/05/14 11:36:51;;;;;;;22.48;18.20;;;23.40;83.10;;;;;;6286083;27;89197;-67
2023/05/14 11:39:55;;;;;;;22.42;17.45;;;23.30;83.00;;;;;;6288540;27;89062;-67
2023/05/14 11:42:57;;;;;;;21.55;16.77;;;23.40;83.10;;;;;;6265780;27;88310;-67
2023/05/14 11:46:00;;;;;;;20.25;15.98;;;23.30;83.00;;;;;;6270229;27;89117;-67
2023/05/14 11:49:05;;;;;;;20.60;15.18;;;23.40;83.10;;;;;;6282164;27;89065;-67
2023/05/14 11:52:10;;;;;;;17.83;14.35;;;23.30;83.10;;;;;;6268136;27;90047;-67
2023/05/14 11:55:12;;;;;;;19.80;14.00;;;23.40;83.10;;;;;;6279521;27;89334;-67
2023/05/14 11:58:15;;;;;;;19.23;14.40;;;23.30;83.30;;;;;;6281960;27;89411;-67
2023/05/14 12:01:18;;;;;;;18.15;13.55;;;23.30;83.00;;;;;;6287035;27;88991;-67
2023/05/14 12:04:22;;;;;;;16.63;12.73;;;23.30;83.10;;;;;;6269825;27;89088;-67
2023/05/14 12:07:24;;;;;;;16.13;12.43;;;23.30;83.00;;;;;;6293477;27;89387;-67
2023/05/14 12:10:26;;;;;;;15.38;12.25;;;23.30;83.10;;;;;;6281672;27;89104;-68
2023/05/14 12:13:28;;;;;;;15.82;12.05;;;23.30;83.10;;;;;;6274295;27;88458;-67
2023/05/14 12:16:31;;;;;;;13.38;10.85;;;23.30;83.20;;;;;;6264554;27;89121;-66
2023/05/14 12:19:40;;;;;;;14.52;10.73;;;23.30;83.70;;;;;;6257895;27;89105;-67
2023/05/14 12:22:43;;;;;;;14.95;11.35;;;23.30;84.50;;;;;;6272923;27;90043;-67
2023/05/14 12:25:51;;;;;;;21.00;11.10;;;23.30;92.50;;;;;;6289742;27;88017;-65
2023/05/14 12:28:59;;;;;;;15.10;11.05;;;23.50;99.90;;;;;;6268447;27;89131;-66
2023/05/14 12:32:03;;;;;;;13.05;10.23;;;23.50;96.90;;;;;;6269171;27;89047;-64
2023/05/14 12:35:07;;;;;;;14.95;10.30;;;23.60;93.30;;;;;;6276346;27;89157;-67
2023/05/14 12:38:09;;;;;;;14.82;10.18;;;23.60;91.60;;;;;;6275219;27;89061;-65
2023/05/14 12:41:11;;;;;;;17.85;10.85;;;23.60;91.00;;;;;;6235316;27;1242961;-65
2023/05/14 12:44:13;;;;;;;15.55;10.07;;;23.70;90.90;;;;;;6281398;27;89130;-66
2023/05/14 12:47:16;;;;;;;17.33;10.20;;;23.70;91.00;;;;;;6271542;27;88997;-66
2023/05/14 12:50:19;;;;;;;12.93;9.70;;;23.70;93.20;;;;;;6256498;27;88902;-66
2023/05/14 12:53:22;;;;;;;10.95;8.82;;;23.90;90.20;;;;;;6265025;27;90159;-66
2023/05/14 12:56:27;;;;;;;11.45;8.60;;;24.20;87.60;;;;;;6274725;27;88187;-66
2023/05/14 12:59:29;;;;;;;14.65;9.32;;;24.40;86.10;;;;;;6287085;27;90618;-65
2023/05/14 13:02:31;;;;;;;12.13;8.32;;;24.50;85.00;;;;;;6262346;27;89173;-66
2023/05/14 13:05:34;;;;;;;13.07;8.73;;;24.50;84.50;;;;;;6265626;27;88264;-67
2023/05/14 13:08:36;;;;;;;10.40;8.50;;;24.50;84.40;;;;;;6264057;27;89185;-66
2023/05/14 13:11:38;;;;;;;9.80;8.57;;;24.40;84.40;;;;;;6266732;27;89029;-66
2023/05/14 13:14:40;;;;;;;10.93;8.20;;;24.30;84.50;;;;;;6279212;27;88243;-65
2023/05/14 13:17:42;;;;;;;10.05;8.00;;;24.30;84.90;;;;;;6273605;27;89130;-66
2023/05/14 13:20:46;;;;;;;10.57;7.85;;;24.40;84.90;;;;;;6269947;27;89540;-65
2023/05/14 13:23:48;;;;;;;11.63;7.90;;;24.40;84.50;;;;;;6276940;27;90046;-65
2023/05/14 13:26:50;;;;;;;9.52;7.63;;;24.40;84.30;;;;;;6284816;27;88989;-66
2023/05/14 13:29:52;;;;;;;10.27;7.53;;;24.30;84.00;;;;;;6267579;27;89117;-65
2023/05/14 13:32:54;;;;;;;11.77;7.80;;;24.30;84.00;;;;;;6280311;27;89365;-65
2023/05/14 13:35:58;;;;;;;8.32;7.22;;;24.30;84.00;;;;;;6292959;27;89163;-66
2023/05/14 13:38:59;;;;;;;8.60;7.65;;;24.30;83.90;;;;;;6279003;27;91377;-65
2023/05/14 13:42:01;;;;;;;9.73;7.50;;;24.20;83.80;;;;;;6258767;27;89400;-65
2023/05/14 13:45:04;;;;;;;10.25;7.15;;;24.20;83.80;;;;;;6258566;27;88285;-65
2023/05/14 13:48:06;;;;;;;8.50;7.10;;;24.10;83.80;;;;;;6273576;27;88983;-65
2023/05/14 13:51:10;;;;;;;8.80;6.80;;;24.10;83.80;;;;;;6281555;27;87958;-66
2023/05/14 13:54:12;;;;;;;9.38;7.90;;;24.10;83.80;;;;;;6282611;27;89291;-65
2023/05/14 13:57:14;;;;;;;8.40;6.38;;;24.10;83.80;;;;;;6284011;27;89192;-65
2023/05/14 14:00:16;;;;;;;8.38;6.65;;;24.00;83.80;;;;;;6267916;27;89223;-65
2023/05/14 14:03:18;;;;;;;11.45;7.05;;;24.00;83.80;;;;;;6271440;27;88302;-65
2023/05/14 14:06:22;;;;;;;8.38;6.72;;;23.90;83.90;;;;;;6272970;27;89341;-64
2023/05/14 14:09:24;;;;;;;10.18;7.32;;;23.90;83.90;;;;;;6279689;27;89055;-64
2023/05/14 14:12:26;;;;;;;7.95;6.40;;;23.90;84.00;;;;;;6268262;27;89020;-65
2023/05/14 14:15:28;;;;;;;8.80;6.25;;;23.90;84.20;;;;;;6275301;27;87559;-65
2023/05/14 14:18:30;;;;;;;7.05;6.32;;;23.90;84.50;;;;;;6269234;27;87941;-65
2023/05/14 14:21:35;;;;;;;10.65;6.68;;;23.80;84.40;;;;;;6274177;27;89344;-66
2023/05/14 14:24:37;;;;;;;8.73;6.15;;;23.90;84.60;;;;;;6284146;27;89987;-66
2023/05/14 14:27:39;;;;;;;10.93;6.35;;;23.80;84.80;;;;;;6273579;27;89179;-67
2023/05/14 14:30:42;;;;;;;8.30;6.43;;;23.80;85.40;;;;;;6259642;27;88815;-67
2023/05/14 14:33:44;;;;;;;8.13;6.35;;;23.70;85.30;;;;;;6273243;27;89352;-67
2023/05/14 14:36:47;;;;;;;9.13;6.57;;;23.80;85.20;;;;;;6295732;27;89085;-67
2023/05/14 14:39:49;;;;;;;8.48;5.82;;;23.80;85.20;;;;;;6280422;27;89235;-67
2023/05/14 14:42:51;;;;;;;11.77;6.30;;;23.70;85.10;;;;;;6276826;27;88973;-67
2023/05/14 14:45:54;;;;;;;7.53;5.72;;;23.70;85.00;;;;;;6266807;27;88377;-66
2023/05/14 14:48:55;;;;;;;7.13;5.50;;;23.70;84.90;;;;;;6266324;27;89135;-67
2023/05/14 14:51:59;;;;;;;7.05;5.55;;;23.70;84.90;;;;;;6283067;27;89376;-67
2023/05/14 14:55:01;;;;;;;8.27;6.00;;;23.70;84.90;;;;;;6271355;27;90317;-67
2023/05/14 14:58:03;;;;;;;7.22;5.50;;;23.70;84.80;;;;;;6269856;27;89049;-66
2023/05/14 15:01:05;;;;;;;6.90;5.68;;;23.70;84.80;;;;;;6275154;27;89387;-66
2023/05/14 15:04:07;;;;;;;8.05;6.05;;;23.60;84.70;;;;;;6276793;27;89054;-67
2023/05/14 15:07:11;;;;;;;8.82;5.28;;;23.60;84.80;;;;;;6261228;27;89414;-67
2023/05/14 15:10:13;;;;;;;7.32;5.15;;;23.60;84.80;;;;;;6272870;27;89095;-67
2023/05/14 15:13:15;;;;;;;6.65;5.10;;;23.60;84.80;;;;;;6277494;27;89005;-67
2023/05/14 15:16:17;;;;;;;8.25;5.28;;;23.60;84.80;;;;;;6277635;27;88332;-67
2023/05/14 15:19:19;;;;;;;7.05;5.10;;;23.60;84.80;;;;;;6272216;27;89083;-67
2023/05/14 15:22:22;;;;;;;5.82;4.85;;;23.60;84.80;;;;;;6278564;27;87986;-67
2023/05/14 15:25:25;;;;;;;7.45;4.97;;;23.60;84.90;;;;;;6276444;27;90316;-66
2023/05/14 15:28:27;;;;;;;9.38;5.25;;;23.60;84.90;;;;;;6273810;27;89302;-66
2023/05/14 15:31:29;;;;;;;7.90;5.57;;;23.60;84.90;;;;;;6287533;27;89276;-67
2023/05/14 15:34:31;;;;;;;7.05;4.60;;;23.60;84.90;;;;;;6292061;27;89619;-67
2023/05/14 15:37:37;;;;;;;6.88;4.60;;;23.60;84.90;;;;;;6285232;27;89256;-67
2023/05/14 15:40:40;;;;;;;5.85;4.72;;;23.60;85.00;;;;;;6282647;27;89474;-66
2023/05/14 15:43:42;;;;;;;5.75;4.72;;;23.60;85.00;;;;;;6282400;27;88979;-67
2023/05/14 15:46:44;;;;;;;7.25;4.43;;;23.60;85.00;;;;;;6281570;27;87366;-67